Plaucheville, Louisiana
Current Conditions -  °F | °C
As of 4:55 PM on Tuesday 27 Jan 2015 (Local Time) from KOPL Reporting Station
Clear Clear  
Wind Chill: 70°   Ceiling: Unl
Heat Index: 70°   Visibility: 10mi
Dew Point: 41°   Wind: 6mph
Humidity: 36%   Direction: 20°NNE
Pressure: 30.11"   Gusts: NA
Location:  30.97°N, 91.98°W
Report Text: KOPL 272255Z AUTO 02005KT 10SM CLR 21/05 A3011 RMK AO2 T02100052
Loading
Personal Weather Stations






























Interactive Weather Map New forecast layout! Learn more

10-Day Weather Forecast

Advertisements
Track Severe Weather on mobile